createdAt,value
2022-12-05T00:02:08.066Z,101671.84
2022-12-05T00:04:37.713Z,101662.53
2022-12-05T00:07:04.679Z,101660.03
2022-12-05T00:09:34.269Z,101665.13
2022-12-05T00:12:01.329Z,101660.63
2022-12-05T00:14:28.211Z,101662.94
2022-12-05T00:16:55.333Z,101669.69
2022-12-05T00:19:23.253Z,101659.88
2022-12-05T00:21:50.290Z,101662.22
2022-12-05T00:24:17.481Z,101662.28
2022-12-05T00:26:45.012Z,101667.47
2022-12-05T00:29:12.585Z,101670.28
2022-12-05T00:31:39.903Z,101670.84
2022-12-05T00:34:06.987Z,101664.13
2022-12-05T00:36:35.600Z,101661.38
2022-12-05T00:39:04.219Z,101661.97
2022-12-05T00:41:31.092Z,101662.59
2022-12-05T00:43:59.373Z,101665.97
2022-12-05T00:46:27.730Z,101659.00
2022-12-05T00:48:55.442Z,101660.41
2022-12-05T00:51:23.820Z,101662.94
2022-12-05T00:53:51.261Z,101662.94
2022-12-05T00:56:21.228Z,101657.31
2022-12-05T00:58:48.870Z,101656.75
2022-12-05T01:01:18.551Z,101657.59
2022-12-05T01:03:46.619Z,101656.75
2022-12-05T01:06:14.289Z,101653.94
2022-12-05T01:08:41.291Z,101665.50
2022-12-05T01:11:09.496Z,101650.63
2022-12-05T01:13:36.520Z,101655.41
2022-12-05T01:16:03.589Z,101664.13
2022-12-05T01:18:30.810Z,101657.97
2022-12-05T01:20:58.130Z,101666.19
2022-12-05T01:23:25.189Z,101660.84
2022-12-05T01:25:52.680Z,101660.59
2022-12-05T01:28:19.814Z,101668.19
2022-12-05T01:30:47.879Z,101665.97
2022-12-05T01:33:14.880Z,101667.69
2022-12-05T01:35:42.965Z,101671.66
2022-12-05T01:38:11.110Z,101663.81
2022-12-05T01:40:38.139Z,101676.50
2022-12-05T01:43:05.167Z,101671.16
2022-12-05T01:45:32.727Z,101673.97
2022-12-05T01:48:03.110Z,101674.88
2022-12-05T01:50:30.302Z,101677.44
2022-12-05T01:52:57.341Z,101685.88
2022-12-05T01:55:24.525Z,101683.06
2022-12-05T01:57:51.429Z,101685.06
2022-12-05T02:00:19.757Z,101695.72
2022-12-05T02:02:49.101Z,101688.50
2022-12-05T02:05:18.375Z,101685.97
2022-12-05T02:07:46.833Z,101695.00
2022-12-05T02:10:13.900Z,101688.78
2022-12-05T02:12:41.062Z,101693.31
2022-12-05T02:15:09.350Z,101696.13
2022-12-05T02:17:46.182Z,101695.03
2022-12-05T02:20:20.387Z,101687.97
2022-12-05T02:22:56.890Z,101693.06
2022-12-05T02:25:33.869Z,101690.78
2022-12-05T02:28:01.041Z,101696.16
2022-12-05T02:30:32.967Z,101694.47
2022-12-05T02:33:10.125Z,101699.84
2022-12-05T02:35:46.948Z,101690.34
2022-12-05T02:38:22.329Z,101693.44
2022-12-05T02:40:58.530Z,101688.41
2022-12-05T02:43:30.649Z,101695.44
2022-12-05T02:45:59.913Z,101693.50
2022-12-05T02:48:28.828Z,101700.00
2022-12-05T02:50:58.174Z,101696.63
2022-12-05T02:53:26.423Z,101710.94
2022-12-05T02:55:54.006Z,101701.41
2022-12-05T02:58:27.196Z,101700.31
2022-12-05T03:00:55.857Z,101706.53
2022-12-05T03:03:23.110Z,101702.88
2022-12-05T03:05:54.388Z,101697.00
2022-12-05T03:08:23.999Z,101695.03
2022-12-05T03:10:51.399Z,101703.75
2022-12-05T03:13:21.465Z,101703.75
2022-12-05T03:15:51.904Z,101695.94
2022-12-05T03:18:18.999Z,101694.25
2022-12-05T03:20:48.808Z,101700.72
2022-12-05T03:23:20.649Z,101703.81
2022-12-05T03:25:56.549Z,101702.97
2022-12-05T03:28:25.613Z,101701.28
2022-12-05T03:30:55.865Z,101705.25
2022-12-05T03:33:26.181Z,101705.53
2022-12-05T03:36:00.080Z,101710.91
2022-12-05T03:38:28.019Z,101710.06
2022-12-05T03:41:00.644Z,101717.91
2022-12-05T03:43:35.399Z,101713.44
2022-12-05T03:46:05.339Z,101713.16
2022-12-05T03:48:38.254Z,101708.72
2022-12-05T03:51:07.045Z,101711.78
2022-12-05T03:53:37.458Z,101716.00
2022-12-05T03:56:09.941Z,101716.00
2022-12-05T03:58:40.292Z,101719.13
2022-12-05T04:01:08.419Z,101718.56
2022-12-05T04:03:46.681Z,101728.94
2022-12-05T04:06:18.628Z,101725.59
2022-12-05T04:08:50.674Z,101724.50
2022-12-05T04:11:20.325Z,101722.81
2022-12-05T04:13:49.743Z,101733.47
2022-12-05T04:16:29.543Z,101718.03
2022-12-05T04:19:00.224Z,101727.56
2022-12-05T04:21:38.349Z,101736.25
2022-12-05T04:24:24.509Z,101733.47
2022-12-05T04:26:56.118Z,101733.19
2022-12-05T04:29:26.995Z,101734.63
2022-12-05T04:31:57.039Z,101736.59
2022-12-05T04:34:24.595Z,101741.63
2022-12-05T04:36:54.429Z,101732.69
2022-12-05T04:39:24.380Z,101740.53
2022-12-05T04:41:53.689Z,101749.25
2022-12-05T04:44:23.618Z,101736.34
2022-12-05T04:46:51.389Z,101741.69
2022-12-05T04:49:20.875Z,101745.03
2022-12-05T04:51:49.873Z,101735.25
2022-12-05T04:54:21.204Z,101739.16
2022-12-05T04:56:49.475Z,101738.91
2022-12-05T04:59:16.235Z,101745.06
2022-12-05T05:01:49.886Z,101741.72
2022-12-05T05:04:21.962Z,101743.41
2022-12-05T05:06:48.681Z,101751.00
2022-12-05T05:09:15.444Z,101759.69
2022-12-05T05:11:42.163Z,101759.94
2022-12-05T05:14:08.915Z,101754.66
2022-12-05T05:16:38.045Z,101759.16
2022-12-05T05:19:05.470Z,101761.94
2022-12-05T05:21:34.007Z,101763.91
2022-12-05T05:24:01.073Z,101760.25
2022-12-05T05:26:28.684Z,101765.56
2022-12-05T05:28:55.521Z,101767.22
2022-12-05T05:31:22.352Z,101765.81
2022-12-05T05:33:49.940Z,101777.00
2022-12-05T05:36:16.724Z,101762.44
2022-12-05T05:38:45.108Z,101769.41
2022-12-05T05:41:13.219Z,101768.84
2022-12-05T05:43:40.536Z,101776.41
2022-12-05T05:46:07.360Z,101778.38
2022-12-05T05:48:34.106Z,101778.66
2022-12-05T05:51:01.343Z,101779.19
2022-12-05T05:53:28.045Z,101788.44
2022-12-05T05:55:55.209Z,101777.47
2022-12-05T05:58:22.309Z,101787.00
2022-12-05T06:00:49.065Z,101787.25
2022-12-05T06:03:15.856Z,101786.69
2022-12-05T06:05:42.693Z,101792.28
2022-12-05T06:08:09.519Z,101780.47
2022-12-05T06:10:38.594Z,101788.03
2022-12-05T06:13:05.654Z,101793.63
2022-12-05T06:15:32.334Z,101788.25
2022-12-05T06:17:59.005Z,101786.56
2022-12-05T06:20:25.814Z,101786.81
2022-12-05T06:22:52.505Z,101789.59
2022-12-05T06:25:19.241Z,101792.63
2022-12-05T06:27:45.914Z,101786.16
2022-12-05T06:30:12.855Z,101786.44
2022-12-05T06:32:39.585Z,101797.63
2022-12-05T06:35:15.437Z,101796.75
2022-12-05T06:37:43.320Z,101792.28
2022-12-05T06:40:10.869Z,101779.59
2022-12-05T06:42:37.565Z,101793.59
2022-12-05T06:45:04.930Z,101797.50
2022-12-05T06:47:32.041Z,101800.56
2022-12-05T06:49:58.847Z,101803.34
2022-12-05T06:52:25.750Z,101801.63
2022-12-05T06:54:52.505Z,101801.91
2022-12-05T06:57:19.359Z,101805.78
2022-12-05T06:59:46.410Z,101803.22
2022-12-05T07:02:13.693Z,101811.91
2022-12-05T07:04:40.499Z,101817.78
2022-12-05T07:07:07.394Z,101812.09
2022-12-05T07:09:43.439Z,101817.97
2022-12-05T07:12:10.197Z,101820.75
2022-12-05T07:14:47.531Z,101822.16
2022-12-05T07:17:15.194Z,101818.13
2022-12-05T07:19:41.991Z,101824.88
2022-12-05T07:22:15.205Z,101828.75
2022-12-05T07:24:42.690Z,101831.56
2022-12-05T07:27:09.430Z,101838.28
2022-12-05T07:29:36.149Z,101839.63
2022-12-05T07:32:03.129Z,101839.03
2022-12-05T07:34:29.969Z,101838.75
2022-12-05T07:36:56.791Z,101839.00
2022-12-05T07:39:23.582Z,101846.00
2022-12-05T07:41:50.365Z,101848.22
2022-12-05T07:44:17.454Z,101855.53
2022-12-05T07:46:44.335Z,101847.09
2022-12-05T07:49:11.140Z,101847.34
2022-12-05T07:51:38.004Z,101862.50
2022-12-05T07:54:04.801Z,101857.09
2022-12-05T07:56:32.834Z,101865.09
2022-12-05T07:58:59.897Z,101871.31
2022-12-05T08:01:28.033Z,101879.13
2022-12-05T08:03:55.961Z,101877.69
2022-12-05T08:06:24.474Z,101888.13
2022-12-05T08:08:51.756Z,101888.94
2022-12-05T08:11:20.446Z,101873.22
2022-12-05T08:13:47.318Z,101884.78
2022-12-05T08:16:15.887Z,101895.78
2022-12-05T08:18:43.309Z,101892.72
2022-12-05T08:21:12.550Z,101891.09
2022-12-05T08:23:39.936Z,101897.00
2022-12-05T08:26:08.394Z,101895.31
2022-12-05T08:28:35.281Z,101893.09
2022-12-05T08:31:04.553Z,101888.31
2022-12-05T08:33:31.475Z,101896.22
2022-12-05T08:36:00.404Z,101892.81
2022-12-05T08:38:27.275Z,101888.81
2022-12-05T08:40:54.034Z,101892.47
2022-12-05T08:43:20.794Z,101900.34
2022-12-05T08:45:50.449Z,101898.38
2022-12-05T08:48:17.345Z,101896.06
2022-12-05T08:50:44.260Z,101890.44
2022-12-05T08:53:11.158Z,101895.78
2022-12-05T08:55:38.370Z,101890.16
2022-12-05T08:58:05.156Z,101887.34
2022-12-05T09:00:32.084Z,101894.66
2022-12-05T09:02:59.287Z,101901.66
2022-12-05T09:05:28.645Z,101895.19
2022-12-05T09:07:56.383Z,101896.03
2022-12-05T09:10:23.273Z,101894.34
2022-12-05T09:12:51.521Z,101900.81
2022-12-05T09:15:18.399Z,101900.28
2022-12-05T09:17:45.416Z,101898.59
2022-12-05T09:20:14.125Z,101899.72
2022-12-05T09:22:41.293Z,101908.78
2022-12-05T09:25:08.447Z,101916.38
2022-12-05T09:27:35.376Z,101918.63
2022-12-05T09:30:02.284Z,101922.28
2022-12-05T09:32:29.374Z,101925.72
2022-12-05T09:34:56.582Z,101918.69
2022-12-05T09:37:38.865Z,101921.81
2022-12-05T09:40:07.185Z,101926.59
2022-12-05T09:42:38.855Z,101936.16
2022-12-05T09:45:14.840Z,101939.25
2022-12-05T09:47:51.958Z,101930.28
2022-12-05T09:50:21.896Z,101941.56
2022-12-05T09:52:58.591Z,101944.13
2022-12-05T09:55:26.024Z,101946.38
2022-12-05T09:58:01.155Z,101950.31
2022-12-05T10:00:29.085Z,101944.72
2022-12-05T10:03:06.655Z,101941.09
2022-12-05T10:05:42.655Z,101955.97
2022-12-05T10:08:18.803Z,101957.16
2022-12-05T10:10:55.000Z,101952.09
2022-12-05T10:13:23.309Z,101967.03
2022-12-05T10:15:55.715Z,101955.28
2022-12-05T10:18:27.181Z,101960.66
2022-12-05T10:21:03.650Z,101957.28
2022-12-05T10:23:56.494Z,101955.59
2022-12-05T10:26:22.985Z,101953.97
2022-12-05T10:29:01.205Z,101955.09
2022-12-05T10:31:30.517Z,101952.31
2022-12-05T10:34:01.555Z,101954.59
2022-12-05T10:36:29.455Z,101955.16
2022-12-05T10:38:57.620Z,101947.84
2022-12-05T10:41:24.821Z,101961.38
2022-12-05T10:43:51.930Z,101960.50
2022-12-05T10:46:18.886Z,101958.28
2022-12-05T10:48:46.075Z,101956.84
2022-12-05T10:51:15.216Z,101953.53
2022-12-05T10:53:42.356Z,101962.22
2022-12-05T10:56:34.047Z,101963.94
2022-12-05T10:59:01.216Z,101966.50
2022-12-05T11:01:28.985Z,101964.53
2022-12-05T11:03:59.028Z,101961.75
2022-12-05T11:06:27.604Z,101965.38
2022-12-05T11:09:04.548Z,101974.09
2022-12-05T11:11:33.940Z,101969.31
2022-12-05T11:14:02.381Z,101964.56
2022-12-05T11:16:30.730Z,101964.31
2022-12-05T11:18:57.618Z,101969.63
2022-12-05T11:21:24.677Z,101963.19
2022-12-05T11:23:51.518Z,101968.84
2022-12-05T11:26:18.761Z,101964.91
2022-12-05T11:28:46.038Z,101961.53
2022-12-05T11:31:13.116Z,101962.13
2022-12-05T11:33:40.557Z,101964.38
2022-12-05T11:36:07.939Z,101968.28
2022-12-05T11:38:35.159Z,101969.72
2022-12-05T11:41:11.737Z,101973.66
2022-12-05T11:43:48.239Z,101969.47
2022-12-05T11:46:16.384Z,101977.03
2022-12-05T11:48:43.519Z,101966.38
2022-12-05T11:51:19.656Z,101971.44
2022-12-05T11:53:47.724Z,101963.84
2022-12-05T11:56:15.823Z,101967.78
2022-12-05T11:58:51.084Z,101952.63
2022-12-05T12:01:18.754Z,101960.53
2022-12-05T12:03:54.659Z,101954.91
2022-12-05T12:06:21.655Z,101961.63
2022-12-05T12:08:48.896Z,101959.09
2022-12-05T12:11:29.940Z,101961.63
2022-12-05T12:14:04.040Z,101957.72
2022-12-05T12:16:31.130Z,101951.00
2022-12-05T12:18:58.198Z,101952.69
2022-12-05T12:21:25.634Z,101943.97
2022-12-05T12:23:53.676Z,101944.81
2022-12-05T12:26:21.819Z,101948.72
2022-12-05T12:28:49.169Z,101952.69
2022-12-05T12:31:16.260Z,101942.81
2022-12-05T12:33:57.595Z,101936.34
2022-12-05T12:36:27.997Z,101944.50
2022-12-05T12:39:01.733Z,101947.31
2022-12-05T12:41:37.585Z,101945.66
2022-12-05T12:44:05.700Z,101959.41
2022-12-05T12:46:43.476Z,101958.81
2022-12-05T12:49:19.769Z,101960.47
2022-12-05T12:51:53.218Z,101956.00
2022-12-05T12:55:01.764Z,101947.28
2022-12-05T12:57:24.316Z,101953.16
2022-12-05T12:59:54.933Z,101958.22
2022-12-05T13:02:31.896Z,101951.19
2022-12-05T13:05:02.447Z,101948.63
2022-12-05T13:07:34.459Z,101954.53
2022-12-05T13:10:06.492Z,101956.75
2022-12-05T13:12:37.680Z,101952.25
2022-12-05T13:15:14.830Z,101954.47
2022-12-05T13:17:43.510Z,101948.00
2022-12-05T13:20:19.011Z,101946.28
2022-12-05T13:22:47.752Z,101944.63
2022-12-05T13:25:16.780Z,101946.56
2022-12-05T13:27:52.768Z,101945.97
2022-12-05T13:30:19.964Z,101942.34
2022-12-05T13:32:47.158Z,101945.41
2022-12-05T13:35:40.649Z,101937.53
2022-12-05T13:38:29.649Z,101942.28
2022-12-05T13:41:05.608Z,101930.19
2022-12-05T13:43:33.244Z,101936.91
2022-12-05T13:46:00.461Z,101943.34
2022-12-05T13:48:28.597Z,101943.59
2022-12-05T13:50:58.262Z,101943.28
2022-12-05T13:53:34.666Z,101950.03
2022-12-05T13:56:01.903Z,101953.94
2022-12-05T13:58:32.161Z,101947.72
2022-12-05T14:01:08.672Z,101952.47
2022-12-05T14:03:35.836Z,101947.09
2022-12-05T14:06:02.637Z,101954.41
2022-12-05T14:08:30.841Z,101945.38
2022-12-05T14:10:57.895Z,101948.75
2022-12-05T14:13:25.658Z,101956.91
2022-12-05T14:15:54.121Z,101949.28
2022-12-05T14:18:42.101Z,101950.69
2022-12-05T14:21:18.785Z,101953.22
2022-12-05T14:23:46.880Z,101944.47
2022-12-05T14:26:14.116Z,101959.94
2022-12-05T14:28:50.640Z,101946.72
2022-12-05T14:31:26.637Z,101952.63
2022-12-05T14:34:04.243Z,101959.09
2022-12-05T14:36:32.016Z,101957.41
2022-12-05T14:38:59.237Z,101957.97
2022-12-05T14:41:31.686Z,101954.84
2022-12-05T14:44:00.043Z,101955.94
2022-12-05T14:46:32.186Z,101957.59
2022-12-05T14:49:19.456Z,101949.75
2022-12-05T14:51:56.395Z,101961.25
2022-12-05T14:54:24.054Z,101957.03
2022-12-05T14:56:55.177Z,101960.94
2022-12-05T14:59:26.275Z,101960.94
2022-12-05T15:01:57.821Z,101965.16
2022-12-05T15:04:28.660Z,101963.19
2022-12-05T15:06:58.833Z,101971.31
2022-12-05T15:09:37.335Z,101973.31
2022-12-05T15:12:09.883Z,101974.97
2022-12-05T15:14:40.929Z,101973.84
2022-12-05T15:17:13.011Z,101980.03
2022-12-05T15:19:46.205Z,101981.16
2022-12-05T15:22:16.196Z,101978.06
2022-12-05T15:24:43.478Z,101986.19
2022-12-05T15:27:12.894Z,101991.84
2022-12-05T15:29:41.588Z,101984.81
2022-12-05T15:32:13.305Z,101982.88
2022-12-05T15:34:52.561Z,101981.19
2022-12-05T15:37:23.514Z,101989.88
2022-12-05T15:39:58.136Z,101988.53
2022-12-05T15:42:30.167Z,101990.72
2022-12-05T15:45:06.918Z,101994.94
2022-12-05T15:47:34.462Z,101989.00
2022-12-05T15:50:01.842Z,101997.69
2022-12-05T15:52:39.631Z,102005.00
2022-12-05T15:55:09.689Z,102004.16
2022-12-05T15:57:42.259Z,102012.63
2022-12-05T16:00:16.461Z,101999.38
2022-12-05T16:02:48.606Z,102009.22
2022-12-05T16:05:26.173Z,102002.44
2022-12-05T16:07:54.831Z,102001.56
2022-12-05T16:10:29.114Z,102010.00
2022-12-05T16:13:04.328Z,102002.41
2022-12-05T16:15:32.751Z,102005.78
2022-12-05T16:18:02.413Z,102013.94
2022-12-05T16:20:32.270Z,102019.25
2022-12-05T16:23:02.109Z,102013.63
2022-12-05T16:25:35.832Z,102015.88
2022-12-05T16:28:12.102Z,102019.50
2022-12-05T16:30:40.485Z,102021.50
2022-12-05T16:33:14.100Z,102011.91
2022-12-05T16:35:44.180Z,102015.56
2022-12-05T16:38:15.540Z,102023.16
2022-12-05T16:40:46.668Z,102020.34
2022-12-05T16:43:23.186Z,102015.88
2022-12-05T16:45:51.672Z,102021.50
2022-12-05T16:48:22.921Z,102019.81
2022-12-05T16:50:52.030Z,102020.09
2022-12-05T16:53:22.714Z,102027.69
2022-12-05T16:55:51.342Z,102023.19
2022-12-05T16:58:22.245Z,102023.19
2022-12-05T17:00:50.416Z,102022.38
2022-12-05T17:03:34.117Z,102034.22
2022-12-05T17:06:02.638Z,102041.28
2022-12-05T17:08:30.676Z,102040.44
2022-12-05T17:10:58.788Z,102048.03
2022-12-05T17:13:26.386Z,102043.00
2022-12-05T17:15:54.169Z,102040.47
2022-12-05T17:18:26.563Z,102037.41
2022-12-05T17:20:58.139Z,102041.63
2022-12-05T17:23:26.025Z,102044.75
2022-12-05T17:25:55.053Z,102043.31
2022-12-05T17:28:22.917Z,102044.75
2022-12-05T17:30:53.731Z,102050.69
2022-12-05T17:33:21.793Z,102056.59
2022-12-05T17:35:49.790Z,102054.63
2022-12-05T17:38:18.058Z,102053.78
2022-12-05T17:40:45.815Z,102053.78
2022-12-05T17:43:17.613Z,102056.91
2022-12-05T17:45:49.937Z,102057.19
2022-12-05T17:48:17.782Z,102065.06
2022-12-05T17:50:47.072Z,102059.75
2022-12-05T17:53:16.362Z,102061.16
2022-12-05T17:55:44.841Z,102073.25
2022-12-05T17:58:15.410Z,102070.75
2022-12-05T18:00:43.952Z,102075.78
2022-12-05T18:03:16.923Z,102085.66
2022-12-05T18:05:44.683Z,102083.13
2022-12-05T18:08:12.784Z,102081.72
2022-12-05T18:10:42.216Z,102083.16
2022-12-05T18:13:09.769Z,102076.94
2022-12-05T18:18:30.064Z,102079.50
2022-12-05T18:21:07.142Z,102082.63
2022-12-05T18:23:35.562Z,102082.66
2022-12-05T18:26:03.198Z,102083.53
2022-12-05T18:28:30.930Z,102082.41
2022-12-05T18:31:05.802Z,102085.25
2022-12-05T18:33:33.276Z,102082.16
2022-12-05T18:36:09.395Z,102090.59
2022-12-05T18:38:37.391Z,102096.22
2022-12-05T18:41:05.565Z,102089.22
2022-12-05T18:43:33.228Z,102088.38
2022-12-05T18:46:03.392Z,102098.25
2022-12-05T18:48:42.748Z,102102.19
2022-12-05T18:51:13.553Z,102095.97
2022-12-05T18:53:41.705Z,102102.19
2022-12-05T18:56:22.086Z,102101.34
2022-12-05T18:59:00.390Z,102102.78
2022-12-05T19:01:29.242Z,102107.28
2022-12-05T19:03:57.756Z,102110.34
2022-12-05T19:06:26.919Z,102121.63
2022-12-05T19:08:55.815Z,102117.13
2022-12-05T19:11:23.818Z,102123.88
2022-12-05T19:13:54.619Z,102122.19
2022-12-05T19:16:22.351Z,102116.00
2022-12-05T19:18:53.673Z,102118.28
2022-12-05T19:21:20.959Z,102123.03
2022-12-05T19:23:48.577Z,102121.34
2022-12-05T19:26:16.012Z,102123.03
2022-12-05T19:28:43.424Z,102128.94
2022-12-05T19:31:16.038Z,102127.81
2022-12-05T19:33:44.410Z,102128.38
2022-12-05T19:36:13.195Z,102126.13
2022-12-05T19:38:41.459Z,102126.44
2022-12-05T19:41:09.630Z,102129.22
2022-12-05T19:43:37.710Z,102125.00
2022-12-05T19:46:06.361Z,102125.56
2022-12-05T19:48:34.444Z,102131.19
2022-12-05T19:51:02.363Z,102138.19
2022-12-05T19:53:31.083Z,102139.63
2022-12-05T19:56:02.266Z,102134.84
2022-12-05T19:58:32.358Z,102133.16
2022-12-05T20:01:08.037Z,102138.25
2022-12-05T20:03:38.901Z,102137.94
2022-12-05T20:06:07.089Z,102143.00
2022-12-05T20:08:35.179Z,102136.81
2022-12-05T20:11:05.541Z,102147.22
2022-12-05T20:13:48.626Z,102145.78
2022-12-05T20:16:19.123Z,102139.06
2022-12-05T20:18:46.738Z,102135.38
2022-12-05T20:21:16.577Z,102128.66
2022-12-05T20:23:44.138Z,102139.31
2022-12-05T20:26:13.019Z,102133.16
2022-12-05T20:28:41.136Z,102138.50
2022-12-05T20:31:10.617Z,102136.00
2022-12-05T20:33:38.590Z,102141.56
2022-12-05T20:36:07.885Z,102137.63
2022-12-05T20:38:35.738Z,102137.91
2022-12-05T20:41:04.660Z,102142.13
2022-12-05T20:43:32.111Z,102145.22
2022-12-05T20:46:04.565Z,102144.94
2022-12-05T20:48:32.173Z,102148.59
2022-12-05T20:51:09.061Z,102153.06
2022-12-05T20:53:36.923Z,102146.88
2022-12-05T20:56:05.434Z,102146.31
2022-12-05T20:58:33.023Z,102145.19
2022-12-05T21:01:00.928Z,102151.91
2022-12-05T21:03:31.751Z,102146.56
2022-12-05T21:05:59.233Z,102149.63
2022-12-05T21:08:26.668Z,102154.97
2022-12-05T21:10:53.950Z,102158.91
2022-12-05T21:13:21.771Z,102158.63
2022-12-05T21:15:49.345Z,102160.00
2022-12-05T21:18:16.777Z,102167.06
2022-12-05T21:20:44.204Z,102159.16
2022-12-05T21:23:15.861Z,102158.03
2022-12-05T21:25:43.164Z,102172.34
2022-12-05T21:28:10.565Z,102169.81
2022-12-05T21:30:38.123Z,102166.44
2022-12-05T21:33:06.227Z,102152.06
2022-12-05T21:35:33.592Z,102159.94
2022-12-05T21:38:01.094Z,102158.81
2022-12-05T21:40:28.438Z,102150.06
2022-12-05T21:42:56.368Z,102157.13
2022-12-05T21:45:23.819Z,102161.34
2022-12-05T21:47:52.020Z,102158.25
2022-12-05T21:50:19.377Z,102151.50
2022-12-05T21:52:46.827Z,102144.72
2022-12-05T21:55:14.221Z,102150.06
2022-12-05T21:57:41.802Z,102157.91
2022-12-05T22:00:09.689Z,102148.06
2022-12-05T22:02:36.971Z,102147.75
2022-12-05T22:05:05.185Z,102154.78
2022-12-05T22:07:32.733Z,102149.69
2022-12-05T22:10:00.297Z,102149.97
2022-12-05T22:12:27.768Z,102146.00
2022-12-05T22:14:54.884Z,102149.97
2022-12-05T22:17:22.215Z,102147.69
2022-12-05T22:19:49.515Z,102149.09
2022-12-05T22:22:16.783Z,102154.97
2022-12-05T22:24:44.120Z,102151.03
2022-12-05T22:27:11.400Z,102156.06
2022-12-05T22:29:38.488Z,102156.91
2022-12-05T22:32:05.804Z,102165.88
2022-12-05T22:34:33.015Z,102176.66
2022-12-05T22:37:00.251Z,102169.91
2022-12-05T22:39:27.407Z,102166.25
2022-12-05T22:41:54.799Z,102162.59
2022-12-05T22:44:21.854Z,102159.50
2022-12-05T22:46:48.862Z,102173.25
2022-12-05T22:49:15.894Z,102168.19
2022-12-05T22:51:42.724Z,102168.72
2022-12-05T22:54:09.644Z,102161.97
2022-12-05T22:56:36.455Z,102160.56
2022-12-05T22:59:03.564Z,102161.09
2022-12-05T23:01:31.866Z,102164.47
2022-12-05T23:04:00.446Z,102166.19
2022-12-05T23:06:28.665Z,102164.72
2022-12-05T23:08:56.209Z,102163.59
2022-12-05T23:11:24.009Z,102163.28
2022-12-05T23:13:51.536Z,102161.03
2022-12-05T23:16:22.524Z,102165.56
2022-12-05T23:18:50.756Z,102158.78
2022-12-05T23:21:17.961Z,102164.44
2022-12-05T23:23:45.636Z,102160.44
2022-12-05T23:26:13.235Z,102152.31
2022-12-05T23:28:40.355Z,102164.44
2022-12-05T23:31:08.214Z,102157.94
2022-12-05T23:33:35.444Z,102155.41
2022-12-05T23:36:02.593Z,102160.19
2022-12-05T23:38:29.687Z,102153.72
2022-12-05T23:40:58.885Z,102162.47
2022-12-05T23:43:26.280Z,102159.94
2022-12-05T23:45:53.246Z,102159.09
2022-12-05T23:48:20.345Z,102157.41
2022-12-05T23:50:57.166Z,102158.84
2022-12-05T23:53:24.139Z,102161.09
2022-12-05T23:55:51.224Z,102163.91
2022-12-05T23:58:18.415Z,102172.69
